createdAt,value
2023-02-20T00:14:21.520Z,17.72
2023-02-20T00:15:21.524Z,17.73
2023-02-20T00:16:21.488Z,17.78
2023-02-20T00:17:21.500Z,17.73
2023-02-20T00:18:21.477Z,17.73
2023-02-20T00:19:21.495Z,17.79
2023-02-20T00:20:21.601Z,17.81
2023-02-20T00:21:21.463Z,17.76
2023-02-20T00:22:21.470Z,17.81
2023-02-20T00:23:21.488Z,17.79
2023-02-20T00:24:21.484Z,17.79
2023-02-20T00:25:21.456Z,17.76
2023-02-20T00:26:21.440Z,17.76
2023-02-20T02:31:22.718Z,17.40
2023-02-20T02:32:22.688Z,17.38
2023-02-20T02:33:22.721Z,17.40
2023-02-20T02:34:22.759Z,17.34
2023-02-20T02:35:22.795Z,17.37
2023-02-20T02:36:22.847Z,17.29
2023-02-20T02:37:22.861Z,17.26
2023-02-20T02:38:22.928Z,17.30
2023-02-20T02:39:22.950Z,17.28
2023-02-20T02:40:22.975Z,17.31
2023-02-20T02:41:23.024Z,17.28
2023-02-20T02:42:23.033Z,17.26
2023-02-20T02:43:23.066Z,17.25
2023-02-20T02:44:23.128Z,17.30
2023-02-20T02:45:23.156Z,17.27
2023-02-20T02:46:23.173Z,17.24
2023-02-20T02:47:23.208Z,17.24
2023-02-20T02:48:23.341Z,17.27
2023-02-20T02:49:23.264Z,17.27
2023-02-20T02:50:23.270Z,17.22
2023-02-20T02:51:23.350Z,17.29
2023-02-20T02:52:23.360Z,17.22
2023-02-20T02:53:23.395Z,17.31
2023-02-20T02:54:23.402Z,17.31
2023-02-20T02:55:23.432Z,17.25
2023-02-20T02:56:23.503Z,17.25
2023-02-20T02:57:23.482Z,17.21
2023-02-20T02:58:23.514Z,17.24
2023-02-20T02:59:23.529Z,17.21
2023-02-20T03:00:23.552Z,17.23
2023-02-20T03:01:23.651Z,17.27
2023-02-20T03:02:23.682Z,17.21
2023-02-20T03:03:23.625Z,17.24
2023-02-20T03:04:23.678Z,17.23
2023-02-20T03:05:23.673Z,17.26
2023-02-20T03:06:23.678Z,17.21
2023-02-20T03:07:23.688Z,17.18
2023-02-20T03:08:23.748Z,17.21
2023-02-20T03:09:23.731Z,17.18
2023-02-20T03:10:23.813Z,17.20
2023-02-20T03:11:23.774Z,17.21
2023-02-20T03:12:23.792Z,17.20
2023-02-20T03:13:23.793Z,17.20
2023-02-20T03:14:23.850Z,17.20
2023-02-20T03:15:23.855Z,17.18
2023-02-20T03:16:23.925Z,17.20
2023-02-20T03:17:23.888Z,17.17
2023-02-20T03:18:23.921Z,17.17
2023-02-20T03:19:23.952Z,17.15
2023-02-20T03:20:23.938Z,17.14
2023-02-20T03:21:23.963Z,17.12
2023-02-20T03:22:23.951Z,17.15
2023-02-20T03:23:24.001Z,17.18
2023-02-20T03:24:24.015Z,17.17
2023-02-20T03:25:24.038Z,17.15
2023-02-20T03:26:24.020Z,17.14
2023-02-20T03:27:24.044Z,17.14
2023-02-20T03:28:24.046Z,17.14
2023-02-20T03:29:24.052Z,17.14
2023-02-20T03:30:24.136Z,17.16
2023-02-20T03:31:24.248Z,17.14
2023-02-20T03:32:24.171Z,17.15
2023-02-20T03:33:24.153Z,17.16
2023-02-20T03:34:24.150Z,17.14
2023-02-20T03:35:24.157Z,17.12
2023-02-20T03:36:24.154Z,17.16
2023-02-20T03:37:24.168Z,17.12
2023-02-20T03:38:24.183Z,17.14
2023-02-20T03:39:24.208Z,17.16
2023-02-20T03:40:24.249Z,17.13
2023-02-20T03:41:24.221Z,17.17
2023-02-20T03:42:24.223Z,17.11
2023-02-20T03:43:24.267Z,17.16
2023-02-20T03:44:24.290Z,17.11
2023-02-20T03:45:24.288Z,17.18
2023-02-20T03:46:24.309Z,17.11
2023-02-20T03:47:24.302Z,17.11
2023-02-20T03:48:24.328Z,17.16
2023-02-20T03:49:24.328Z,17.14
2023-02-20T03:50:24.361Z,17.14
2023-02-20T03:51:24.401Z,17.14
2023-02-20T03:52:24.371Z,17.11
2023-02-20T03:53:24.427Z,17.14
2023-02-20T03:54:24.436Z,17.15
2023-02-20T03:55:24.438Z,17.19
2023-02-20T03:56:24.423Z,17.19
2023-02-20T03:57:24.452Z,17.15
2023-02-20T03:58:24.482Z,17.15
2023-02-20T03:59:24.465Z,17.09
2023-02-20T04:00:24.544Z,17.12
2023-02-20T04:01:24.539Z,17.15
2023-02-20T04:02:24.587Z,17.15
2023-02-20T04:03:24.551Z,17.15
2023-02-20T04:04:24.562Z,17.17
2023-02-20T04:05:24.601Z,17.14
2023-02-20T04:06:24.604Z,17.11
2023-02-20T04:07:24.655Z,17.20
2023-02-20T04:08:24.633Z,17.11
2023-02-20T04:09:24.664Z,17.14
2023-02-20T04:10:24.663Z,17.12
2023-02-20T04:11:24.716Z,17.09
2023-02-20T04:12:24.722Z,17.15
2023-02-20T04:13:24.733Z,17.11
2023-02-20T04:14:24.776Z,17.09
2023-02-20T04:15:24.771Z,17.07
2023-02-20T04:16:24.824Z,17.13
2023-02-20T04:17:24.830Z,17.06
2023-02-20T04:18:24.888Z,17.08
2023-02-20T04:19:24.835Z,17.09
2023-02-20T04:20:24.884Z,17.08
2023-02-20T04:21:24.894Z,17.09
2023-02-20T04:22:24.934Z,17.11
2023-02-20T04:23:24.927Z,17.05
2023-02-20T04:24:24.966Z,17.09
2023-02-20T04:25:24.977Z,17.08
2023-02-20T04:26:25.030Z,17.11
2023-02-20T04:27:25.007Z,17.12
2023-02-20T04:28:25.038Z,17.11
2023-02-20T04:29:25.050Z,17.11
2023-02-20T04:30:25.164Z,17.03
2023-02-20T04:31:25.198Z,17.01
2023-02-20T04:32:25.154Z,17.03
2023-02-20T04:33:25.198Z,17.03
2023-02-20T04:34:25.193Z,17.03
2023-02-20T04:35:25.218Z,17.09
2023-02-20T04:36:25.244Z,17.08
2023-02-20T04:37:25.260Z,17.05
2023-02-20T04:38:25.327Z,17.03
2023-02-20T04:39:25.312Z,17.05
2023-02-20T04:40:25.349Z,17.03
2023-02-20T04:46:25.593Z,17.08
2023-02-20T04:47:25.554Z,17.03
2023-02-20T04:48:25.620Z,17.08
2023-02-20T04:49:25.647Z,17.08
2023-02-20T04:50:25.661Z,17.00
2023-02-20T04:51:25.719Z,17.04
2023-02-20T04:52:25.699Z,17.06
2023-02-20T04:53:25.755Z,17.03
2023-02-20T04:54:26.349Z,17.03
2023-02-20T06:00:34.956Z,16.85
2023-02-20T06:01:27.430Z,16.88
2023-02-20T06:03:27.451Z,16.84
2023-02-20T06:05:27.418Z,16.84
2023-02-20T06:06:27.376Z,16.85
2023-02-20T06:07:27.385Z,16.87
2023-02-20T06:08:27.392Z,16.85
2023-02-20T06:09:27.398Z,16.90
2023-02-20T06:10:27.374Z,16.82
2023-02-20T06:11:27.382Z,16.84
2023-02-20T06:12:27.356Z,16.84
2023-02-20T06:14:27.340Z,16.81
2023-02-20T06:15:27.347Z,16.87
2023-02-20T06:24:27.268Z,16.79
2023-02-20T06:25:27.240Z,16.82
2023-02-20T06:26:27.249Z,16.81
2023-02-20T06:27:27.288Z,16.84
2023-02-20T06:28:27.264Z,16.82
2023-02-20T06:29:27.286Z,16.80
2023-02-20T06:30:27.307Z,16.84
2023-02-20T06:31:27.508Z,17.73
2023-02-20T06:32:27.455Z,18.67
2023-02-20T06:33:27.404Z,19.78
2023-02-20T06:34:27.440Z,19.26
2023-02-20T06:35:27.482Z,19.29
2023-02-20T06:36:27.961Z,19.52
2023-02-20T06:37:27.621Z,19.25
2023-02-20T06:38:29.396Z,18.98
2023-02-20T06:39:27.631Z,19.91
2023-02-20T06:40:27.662Z,20.28
2023-02-20T06:41:27.940Z,20.39
2023-02-20T06:42:27.754Z,20.57
2023-02-20T06:45:36.182Z,20.50
2023-02-20T06:46:28.086Z,20.70
2023-02-20T07:21:28.887Z,25.38
2023-02-20T07:22:28.984Z,25.37
2023-02-20T07:23:28.904Z,25.38
2023-02-20T07:24:28.910Z,25.62
2023-02-20T07:25:28.964Z,25.58
2023-02-20T07:26:28.931Z,25.52
2023-02-20T07:27:29.000Z,25.13
2023-02-20T07:28:29.040Z,24.84
2023-02-20T08:07:29.904Z,25.21
2023-02-20T08:08:29.940Z,25.31
2023-02-20T09:25:32.073Z,21.52
2023-02-20T09:26:32.223Z,21.76
2023-02-20T09:27:32.146Z,21.96
2023-02-20T09:34:32.057Z,22.20
2023-02-20T09:38:32.074Z,19.46
2023-02-20T09:39:32.088Z,19.54
2023-02-20T09:40:32.159Z,20.97
2023-02-20T09:41:32.133Z,21.16
2023-02-20T09:42:32.169Z,21.52
2023-02-20T09:43:32.254Z,21.68
2023-02-20T09:44:32.536Z,22.33
2023-02-20T09:45:32.258Z,22.29
2023-02-20T09:46:32.262Z,23.10
2023-02-20T09:47:32.338Z,24.00
2023-02-20T09:48:32.345Z,24.66
2023-02-20T09:49:32.368Z,25.08
2023-02-20T09:50:32.394Z,23.70
2023-02-20T09:51:32.370Z,24.49
2023-02-20T09:52:32.431Z,25.10
2023-02-20T09:53:32.446Z,24.98
2023-02-20T09:54:32.472Z,25.14
2023-02-20T09:55:32.541Z,25.48
2023-02-20T09:56:32.562Z,25.22
2023-02-20T09:57:32.550Z,24.83
2023-02-20T09:58:32.593Z,25.15
2023-02-20T09:59:32.625Z,24.82
2023-02-20T10:00:33.026Z,24.67
2023-02-20T10:01:32.642Z,24.68
2023-02-20T10:02:32.786Z,24.53
2023-02-20T10:03:32.794Z,24.59
2023-02-20T10:04:32.800Z,24.43
2023-02-20T10:05:32.819Z,24.64
2023-02-20T10:06:32.868Z,24.66
2023-02-20T10:07:32.853Z,24.94
2023-02-20T10:08:32.866Z,24.83
2023-02-20T10:09:32.877Z,24.77
2023-02-20T10:10:32.874Z,24.82
2023-02-20T10:11:32.891Z,24.95
2023-02-20T10:12:32.925Z,25.06
2023-02-20T10:13:32.965Z,25.20
2023-02-20T10:14:33.041Z,25.39
2023-02-20T10:15:33.105Z,25.30
2023-02-20T10:16:33.230Z,25.23
2023-02-20T10:17:33.192Z,25.45
2023-02-20T10:18:33.217Z,25.62
2023-02-20T10:19:33.272Z,25.59
2023-02-20T10:20:33.294Z,25.64
2023-02-20T10:21:33.354Z,25.69
2023-02-20T10:22:33.398Z,25.81
2023-02-20T10:23:33.369Z,25.86
2023-02-20T10:24:33.428Z,25.88
2023-02-20T10:25:33.438Z,25.76
2023-02-20T10:26:33.472Z,25.59
2023-02-20T10:27:33.490Z,25.55
2023-02-20T10:28:33.620Z,25.39
2023-02-20T10:29:33.657Z,25.24
2023-02-20T10:30:33.719Z,25.03
2023-02-20T10:31:33.801Z,24.99
2023-02-20T10:32:33.800Z,24.84
2023-02-20T10:33:33.845Z,24.64
2023-02-20T10:34:33.886Z,24.45
2023-02-20T10:35:33.937Z,24.35
2023-02-20T10:36:35.464Z,24.27
2023-02-20T10:37:46.631Z,24.16
2023-02-20T10:39:34.140Z,23.89
2023-02-20T10:40:34.102Z,23.79
2023-02-20T10:41:34.104Z,23.63
2023-02-20T10:42:34.053Z,21.20
2023-02-20T10:43:34.054Z,21.36
2023-02-20T10:44:43.025Z,22.07
2023-02-20T10:45:35.034Z,21.96
2023-02-20T10:46:47.783Z,22.05
2023-02-20T10:47:34.999Z,22.44
2023-02-20T10:48:34.033Z,20.91
2023-02-20T10:49:33.992Z,21.18
2023-02-20T10:50:34.070Z,20.02
2023-02-20T10:51:34.044Z,20.47
2023-02-20T10:52:34.917Z,20.91
2023-02-20T10:53:35.060Z,21.17
2023-02-20T10:54:34.023Z,21.46
2023-02-20T10:55:34.085Z,21.79
2023-02-20T10:56:34.040Z,21.95
2023-02-20T10:57:34.030Z,22.17
2023-02-20T10:58:34.050Z,22.18
2023-02-20T10:59:34.058Z,22.15
2023-02-20T11:00:34.119Z,20.15
2023-02-20T11:01:34.216Z,19.97
2023-02-20T11:02:34.185Z,19.66
2023-02-20T11:03:34.242Z,20.05
2023-02-20T11:04:34.310Z,20.60
2023-02-20T11:05:34.389Z,20.81
2023-02-20T11:07:34.316Z,20.23
2023-02-20T11:08:34.386Z,20.52
2023-02-20T11:09:34.453Z,20.84
2023-02-20T11:10:34.523Z,21.20
2023-02-20T11:11:35.166Z,21.33
2023-02-20T11:12:34.526Z,21.75
2023-02-20T11:13:34.623Z,22.26
2023-02-20T11:14:40.562Z,22.37
2023-02-20T11:15:35.688Z,22.57
2023-02-20T11:16:34.662Z,22.75
2023-02-20T11:17:34.561Z,22.94
2023-02-20T11:18:34.553Z,23.51
2023-02-20T11:19:34.576Z,23.38
2023-02-20T11:20:34.553Z,23.59
2023-02-20T11:21:34.538Z,23.81
2023-02-20T11:22:34.524Z,23.87
2023-02-20T11:23:34.453Z,23.87
2023-02-20T11:24:34.461Z,23.77
2023-02-20T11:25:35.537Z,23.65
2023-02-20T11:26:34.551Z,23.76
2023-02-20T11:27:34.656Z,23.89
2023-02-20T11:28:34.646Z,23.81
2023-02-20T11:29:34.717Z,24.00
2023-02-20T11:30:34.774Z,23.86
2023-02-20T11:31:34.836Z,23.86
2023-02-20T11:32:34.866Z,23.99
2023-02-20T11:33:34.913Z,23.98
2023-02-20T11:34:34.873Z,23.95
2023-02-20T11:35:34.908Z,24.00
2023-02-20T11:36:35.068Z,24.03
2023-02-20T11:37:40.084Z,24.61
2023-02-20T11:38:36.141Z,25.16
2023-02-20T11:39:35.028Z,25.98
2023-02-20T11:40:35.001Z,25.23
2023-02-20T11:41:35.058Z,25.10
2023-02-20T11:42:35.045Z,24.85
2023-02-20T11:43:35.028Z,24.77
2023-02-20T11:44:35.044Z,24.56
2023-02-20T11:45:35.013Z,24.63
2023-02-20T11:46:35.148Z,24.49
2023-02-20T11:47:35.000Z,24.31
2023-02-20T11:48:35.048Z,24.32
2023-02-20T11:49:35.228Z,24.19
2023-02-20T11:50:35.182Z,24.14
2023-02-20T11:51:35.583Z,23.97
2023-02-20T11:52:35.324Z,23.89
2023-02-20T11:53:35.364Z,23.83
2023-02-20T11:54:35.439Z,23.76
2023-02-20T11:55:35.520Z,23.65
2023-02-20T11:56:35.621Z,23.57
2023-02-20T11:57:35.629Z,23.49
2023-02-20T11:58:35.670Z,23.37
2023-02-20T12:00:35.769Z,23.22
2023-02-20T12:01:36.085Z,23.10
2023-02-20T12:02:35.886Z,23.12
2023-02-20T12:03:35.933Z,22.97
2023-02-20T12:04:35.941Z,22.95
2023-02-20T12:05:36.003Z,22.86
2023-02-20T12:07:36.563Z,22.76
2023-02-20T12:08:36.362Z,22.72
2023-02-20T12:09:36.204Z,22.70
2023-02-20T12:10:36.232Z,22.67
2023-02-20T12:11:36.325Z,22.51
2023-02-20T12:12:36.563Z,22.44
2023-02-20T12:14:36.485Z,22.46
2023-02-20T12:15:36.487Z,22.38
2023-02-20T12:16:36.603Z,22.33
2023-02-20T12:17:36.601Z,22.24
2023-02-20T12:18:36.623Z,22.18
2023-02-20T12:19:36.680Z,22.18
2023-02-20T12:20:36.721Z,22.14
2023-02-20T12:21:36.749Z,22.09
2023-02-20T12:22:36.825Z,22.06
2023-02-20T12:23:36.868Z,22.04
2023-02-20T12:24:36.888Z,21.92
2023-02-20T12:25:36.977Z,22.00
2023-02-20T12:26:38.447Z,21.95
2023-02-20T12:27:37.043Z,21.92
2023-02-20T12:28:37.082Z,21.77
2023-02-20T12:29:37.151Z,22.83
2023-02-20T12:30:37.357Z,22.57
2023-02-20T12:31:37.326Z,22.01
2023-02-20T12:33:37.348Z,22.72
2023-02-20T12:34:37.397Z,22.65
2023-02-20T12:44:38.088Z,22.11
2023-02-20T12:48:38.220Z,21.85
2023-02-20T12:49:38.325Z,21.82
2023-02-20T12:50:38.331Z,21.84
2023-02-20T12:52:38.417Z,21.69
2023-02-20T12:53:38.505Z,21.72
2023-02-20T12:54:38.571Z,21.64
2023-02-20T12:55:38.622Z,21.64
2023-02-20T12:56:38.677Z,21.53
2023-02-20T12:57:38.789Z,21.57
2023-02-20T12:58:38.809Z,21.55
2023-02-20T12:59:38.860Z,21.51
2023-02-20T13:00:38.982Z,21.46
2023-02-20T13:13:39.729Z,21.22
2023-02-20T13:14:39.767Z,21.25
2023-02-20T13:15:39.881Z,21.19
2023-02-20T13:16:39.979Z,21.14
2023-02-20T13:18:40.028Z,21.13
2023-02-20T13:19:40.082Z,21.08
2023-02-20T13:20:44.336Z,21.04
2023-02-20T13:21:40.090Z,20.97
2023-02-20T13:22:40.093Z,20.97
2023-02-20T13:23:41.976Z,21.19
2023-02-20T13:25:40.084Z,21.15
2023-02-20T13:26:40.341Z,21.58
2023-02-20T13:27:40.059Z,23.21
2023-02-20T13:28:40.072Z,28.06
2023-02-20T13:29:40.071Z,31.00
2023-02-20T13:30:40.189Z,29.45
2023-02-20T13:31:40.056Z,28.28
2023-02-20T13:32:40.043Z,27.36
2023-02-20T13:33:40.024Z,27.02
2023-02-20T13:34:40.007Z,26.68
2023-02-20T13:35:40.010Z,26.46
2023-02-20T13:36:40.004Z,26.19
2023-02-20T13:37:39.977Z,26.04
2023-02-20T13:38:39.993Z,26.03
2023-02-20T13:39:39.997Z,26.10
2023-02-20T13:40:39.971Z,26.11
2023-02-20T13:42:39.951Z,26.14
2023-02-20T14:27:41.101Z,21.38
2023-02-20T14:28:41.118Z,21.61
2023-02-20T14:54:42.345Z,23.19
2023-02-20T14:55:42.079Z,23.32
2023-02-20T14:56:42.103Z,23.43
2023-02-20T14:57:42.553Z,23.43
2023-02-20T14:58:42.129Z,22.72
2023-02-20T14:59:42.156Z,23.17
2023-02-20T15:00:42.244Z,23.10
2023-02-20T15:01:42.193Z,23.07
2023-02-20T15:02:42.290Z,21.72
2023-02-20T15:03:42.309Z,21.57
2023-02-20T15:04:42.317Z,21.73
2023-02-20T15:05:42.324Z,22.22
2023-02-20T15:06:42.329Z,22.43
2023-02-20T15:07:42.370Z,22.57
2023-02-20T15:08:42.413Z,21.59
2023-02-20T15:09:42.425Z,22.08
2023-02-20T15:10:42.425Z,22.55
2023-02-20T15:11:42.446Z,22.55
2023-02-20T15:12:42.480Z,22.66
2023-02-20T15:13:42.552Z,22.77
2023-02-20T15:14:42.518Z,22.96
2023-02-20T15:15:42.570Z,23.13
2023-02-20T15:16:42.588Z,23.18
2023-02-20T15:17:42.678Z,23.19
2023-02-20T15:18:42.639Z,23.36
2023-02-20T15:19:42.626Z,23.50
2023-02-20T15:20:42.648Z,23.38
2023-02-20T15:21:42.653Z,20.23
2023-02-20T15:22:42.678Z,19.89
2023-02-20T15:23:42.681Z,19.87
2023-02-20T15:24:42.732Z,19.60
2023-02-20T15:25:42.838Z,19.12
2023-02-20T15:26:42.846Z,19.42
2023-02-20T15:27:42.940Z,19.50
2023-02-20T15:28:43.006Z,19.45
2023-02-20T15:29:43.045Z,19.41
2023-02-20T15:30:43.102Z,19.48
2023-02-20T15:31:44.099Z,19.51
2023-02-20T15:32:43.011Z,19.34
2023-02-20T15:33:42.970Z,19.32
2023-02-20T15:34:43.035Z,19.38
2023-02-20T15:35:43.003Z,19.39
2023-02-20T15:36:43.003Z,19.89
2023-02-20T15:37:49.605Z,19.81
2023-02-20T15:38:44.005Z,19.86
2023-02-20T15:39:43.039Z,20.48
2023-02-20T15:40:43.221Z,20.62
2023-02-20T15:41:43.003Z,20.82
2023-02-20T15:42:43.003Z,21.03
2023-02-20T15:43:47.268Z,21.17
2023-02-20T15:44:43.982Z,21.33
2023-02-20T15:45:42.981Z,21.39
2023-02-20T15:46:43.027Z,21.38
2023-02-20T15:47:42.992Z,21.31
2023-02-20T15:48:42.979Z,21.46
2023-02-20T15:49:42.950Z,21.43
2023-02-20T15:50:42.938Z,21.72
2023-02-20T15:51:42.948Z,21.71
2023-02-20T15:52:42.967Z,21.71
2023-02-20T15:53:42.969Z,21.69
2023-02-20T15:54:42.920Z,21.67
2023-02-20T15:55:42.909Z,21.67
2023-02-20T15:56:42.928Z,21.84
2023-02-20T15:57:42.957Z,21.74
2023-02-20T15:58:43.002Z,22.09
2023-02-20T15:59:43.004Z,22.04
2023-02-20T16:00:43.000Z,22.17
2023-02-20T16:01:43.076Z,22.12
2023-02-20T16:02:43.282Z,22.06
2023-02-20T16:03:51.686Z,21.97
2023-02-20T16:04:44.156Z,22.07
2023-02-20T16:05:43.151Z,21.93
2023-02-20T16:06:43.147Z,22.03
2023-02-20T16:07:43.267Z,21.86
2023-02-20T16:08:43.169Z,22.06
2023-02-20T16:09:43.150Z,22.07
2023-02-20T16:10:43.142Z,22.42
2023-02-20T16:11:43.191Z,22.50
2023-02-20T16:12:43.119Z,22.67
2023-02-20T16:13:43.104Z,22.73
2023-02-20T16:14:43.120Z,22.13
2023-02-20T16:15:43.128Z,21.64
2023-02-20T16:16:43.094Z,21.85
2023-02-20T16:17:43.094Z,22.31
2023-02-20T16:18:43.090Z,22.60
2023-02-20T16:19:43.260Z,22.92
2023-02-20T16:20:43.153Z,23.42
2023-02-20T16:21:57.782Z,23.60
2023-02-20T16:22:44.196Z,23.75
2023-02-20T16:23:43.176Z,23.86
2023-02-20T16:24:43.003Z,23.92
2023-02-20T16:25:43.016Z,23.98
2023-02-20T16:26:44.208Z,24.28
2023-02-20T16:27:43.033Z,24.40
2023-02-20T16:28:42.989Z,24.47
2023-02-20T16:29:43.524Z,25.09
2023-02-20T16:30:43.198Z,24.90
2023-02-20T16:31:43.092Z,24.74
2023-02-20T16:32:42.976Z,25.10
2023-02-20T16:33:42.991Z,25.41
2023-02-20T16:34:45.748Z,25.47
2023-02-20T16:35:42.947Z,25.71
2023-02-20T16:36:42.989Z,25.87
2023-02-20T16:37:42.920Z,26.14
2023-02-20T16:38:42.939Z,26.21
2023-02-20T16:39:42.953Z,26.20
2023-02-20T16:40:42.894Z,26.28
2023-02-20T16:41:42.981Z,26.47
2023-02-20T16:42:42.895Z,26.61
2023-02-20T16:43:42.894Z,26.80
2023-02-20T16:44:42.865Z,26.77
2023-02-20T16:45:42.877Z,26.94
2023-02-20T16:46:43.102Z,27.00
2023-02-20T16:47:42.866Z,27.13
2023-02-20T16:48:42.854Z,27.19
2023-02-20T16:49:42.842Z,27.35
2023-02-20T16:50:42.880Z,27.44
2023-02-20T16:51:42.846Z,27.98
2023-02-20T16:52:42.831Z,27.75
2023-02-20T16:53:42.916Z,27.62
2023-02-20T16:54:42.821Z,27.46
2023-02-20T16:55:42.824Z,27.31
2023-02-20T16:56:42.823Z,27.35
2023-02-20T16:57:42.789Z,27.31
2023-02-20T16:58:42.792Z,26.98
2023-02-20T16:59:42.763Z,26.46
2023-02-20T17:00:55.181Z,26.64
2023-02-20T17:01:43.834Z,26.66
2023-02-20T17:02:42.737Z,26.77
2023-02-20T17:03:42.715Z,26.77
2023-02-20T17:04:42.777Z,26.75
2023-02-20T17:05:42.749Z,26.67
2023-02-20T17:06:42.741Z,26.63
2023-02-20T17:07:42.731Z,26.66
2023-02-20T17:08:42.717Z,26.51
2023-02-20T17:09:45.903Z,26.28
2023-02-20T17:10:42.693Z,25.88
2023-02-20T17:11:42.680Z,25.38
2023-02-20T17:12:42.689Z,25.11
2023-02-20T17:13:42.696Z,24.96
2023-02-20T17:14:42.665Z,24.63
2023-02-20T17:15:42.647Z,24.62
2023-02-20T17:16:42.664Z,24.56
2023-02-20T17:17:42.647Z,24.53
2023-02-20T17:18:42.653Z,24.49
2023-02-20T17:19:42.651Z,24.40
2023-02-20T17:20:42.649Z,24.54
2023-02-20T17:21:42.636Z,24.51
2023-02-20T17:22:42.622Z,24.48
2023-02-20T17:23:42.625Z,24.35
2023-02-20T17:24:42.624Z,24.34
2023-02-20T17:25:42.587Z,24.38
2023-02-20T17:26:42.633Z,24.34
2023-02-20T17:27:42.587Z,24.32
2023-02-20T17:28:42.582Z,24.29
2023-02-20T17:29:42.562Z,24.24
2023-02-20T17:30:42.643Z,24.24
2023-02-20T17:31:42.607Z,24.15
2023-02-20T17:32:42.532Z,24.11
2023-02-20T17:33:42.543Z,24.08
2023-02-20T17:34:42.537Z,24.08
2023-02-20T17:35:42.498Z,24.08
2023-02-20T17:36:42.502Z,24.01
2023-02-20T17:37:42.499Z,24.00
2023-02-20T17:38:42.516Z,23.92
2023-02-20T17:39:42.530Z,23.91
2023-02-20T17:40:42.496Z,23.90
2023-02-20T17:41:42.491Z,23.88
2023-02-20T17:42:42.512Z,23.84
2023-02-20T17:43:42.471Z,23.80
2023-02-20T17:44:42.499Z,23.67
2023-02-20T17:45:42.448Z,23.72
2023-02-20T17:46:42.529Z,23.68
2023-02-20T17:47:42.426Z,23.68
2023-02-20T17:48:42.439Z,23.68
2023-02-20T17:49:42.461Z,23.59
2023-02-20T17:50:42.420Z,23.59
2023-02-20T17:51:42.432Z,23.58
2023-02-20T17:52:42.390Z,23.57
2023-02-20T17:53:42.392Z,23.54
2023-02-20T17:54:42.411Z,23.47
2023-02-20T17:55:42.416Z,23.48
2023-02-20T17:56:42.383Z,23.46
2023-02-20T17:57:42.367Z,23.44
2023-02-20T17:58:42.398Z,23.38
2023-02-20T17:59:42.353Z,23.36
2023-02-20T18:00:42.421Z,23.32
2023-02-20T18:01:42.332Z,23.34
2023-02-20T18:02:42.382Z,23.30
2023-02-20T18:03:42.433Z,23.29
2023-02-20T18:04:42.355Z,23.22
2023-02-20T18:05:42.332Z,23.19
2023-02-20T18:06:42.375Z,23.19
2023-02-20T18:07:42.368Z,23.13
2023-02-20T18:08:42.455Z,23.13
2023-02-20T18:09:42.440Z,23.04
2023-02-20T18:10:42.455Z,23.05
2023-02-20T18:11:42.498Z,23.04
2023-02-20T18:12:42.525Z,23.09
2023-02-20T18:13:42.551Z,23.04
2023-02-20T18:14:42.585Z,22.99
2023-02-20T18:15:42.589Z,22.99
2023-02-20T18:16:42.707Z,23.05
2023-02-20T18:17:42.729Z,22.96
2023-02-20T18:18:42.744Z,22.93
2023-02-20T18:19:42.747Z,22.98
2023-02-20T18:20:42.770Z,22.86
2023-02-20T18:21:42.905Z,22.87
2023-02-20T18:22:42.872Z,22.92
2023-02-20T18:23:42.899Z,22.86
2023-02-20T18:24:42.940Z,22.89
2023-02-20T18:25:42.968Z,22.82
2023-02-20T18:26:43.031Z,22.81
2023-02-20T18:27:43.066Z,22.76
2023-02-20T18:28:43.087Z,22.75
2023-02-20T18:29:43.135Z,22.65
2023-02-20T18:30:43.228Z,22.72
2023-02-20T18:31:43.454Z,22.65
2023-02-20T18:52:44.183Z,22.24
2023-02-20T18:55:44.348Z,22.19
2023-02-20T18:56:44.390Z,22.15
2023-02-20T18:57:44.416Z,22.15
2023-02-20T18:58:44.500Z,22.13
2023-02-20T18:59:44.530Z,22.15
2023-02-20T19:00:44.607Z,22.10
2023-02-20T19:01:44.649Z,22.10
2023-02-20T19:02:44.663Z,22.02
2023-02-20T19:03:44.720Z,22.01
2023-02-20T19:04:44.762Z,22.04
2023-02-20T19:05:44.835Z,21.99
2023-02-20T19:06:45.043Z,21.98
2023-02-20T19:07:45.000Z,21.99
2023-02-20T19:08:44.964Z,21.96
2023-02-20T19:09:45.048Z,21.89
2023-02-20T19:10:45.039Z,21.93
2023-02-20T19:11:45.125Z,21.87
2023-02-20T19:12:45.151Z,21.89
2023-02-20T19:13:45.231Z,21.86
2023-02-20T19:14:45.269Z,21.86
2023-02-20T19:15:45.384Z,21.84
2023-02-20T19:16:45.429Z,21.82
2023-02-20T19:17:45.486Z,21.84
2023-02-20T19:18:50.370Z,21.77
2023-02-20T19:20:45.465Z,21.71
2023-02-20T19:21:45.502Z,21.75
2023-02-20T19:22:45.459Z,21.72
2023-02-20T19:23:45.489Z,21.70
2023-02-20T19:24:45.454Z,21.75
2023-02-20T19:25:45.455Z,21.70
2023-02-20T19:26:45.431Z,21.67
2023-02-20T19:27:45.430Z,21.64
2023-02-20T19:28:45.427Z,21.68
2023-02-20T19:29:45.429Z,21.64
2023-02-20T19:30:45.463Z,21.64
2023-02-20T19:31:45.629Z,21.64
2023-02-20T19:32:45.562Z,21.57
2023-02-20T19:33:45.629Z,21.60
2023-02-20T19:34:45.683Z,21.57
2023-02-20T19:35:45.760Z,21.55
2023-02-20T19:36:45.805Z,21.49
2023-02-20T19:37:45.878Z,21.52
2023-02-20T19:38:45.922Z,21.52
2023-02-20T19:39:45.989Z,21.46
2023-02-20T19:40:46.028Z,21.46
2023-02-20T19:41:46.057Z,21.41
2023-02-20T19:42:46.161Z,21.40
2023-02-20T19:43:46.190Z,21.38
2023-02-20T19:44:46.285Z,21.38
2023-02-20T19:45:46.321Z,21.34
2023-02-20T19:46:46.372Z,21.34
2023-02-20T19:47:46.443Z,21.34
2023-02-20T19:48:46.477Z,21.34
2023-02-20T19:49:46.517Z,21.38
2023-02-20T19:50:46.585Z,21.27
2023-02-20T19:51:46.663Z,21.25
2023-02-20T19:52:46.697Z,21.29
2023-02-20T19:53:46.741Z,21.24
2023-02-20T19:54:46.859Z,21.24
2023-02-20T19:55:46.861Z,21.26
2023-02-20T19:56:46.918Z,21.19
2023-02-20T19:57:46.989Z,21.19
2023-02-20T19:58:47.012Z,21.20
2023-02-20T19:59:47.087Z,21.20
2023-02-20T20:00:47.122Z,21.14
2023-02-20T20:01:47.197Z,21.15
2023-02-20T20:02:47.284Z,21.14
2023-02-20T20:03:47.328Z,21.15
2023-02-20T20:04:47.363Z,21.13
2023-02-20T20:05:47.401Z,21.08
2023-02-20T20:06:47.494Z,21.11
2023-02-20T20:07:47.520Z,21.03
2023-02-20T20:09:10.019Z,21.03
2023-02-20T20:09:48.602Z,21.06
2023-02-20T20:10:47.865Z,21.03
2023-02-20T20:11:47.553Z,21.05
2023-02-20T20:32:48.547Z,20.73
2023-02-20T20:33:48.578Z,20.74
2023-02-20T20:34:48.625Z,20.73
2023-02-20T20:35:48.712Z,20.73
2023-02-20T20:36:48.777Z,20.67
2023-02-20T20:37:48.842Z,20.74
2023-02-20T20:38:48.867Z,20.68
2023-02-20T20:39:48.974Z,20.73
2023-02-20T20:40:48.982Z,20.71
2023-02-20T20:41:49.042Z,20.64
2023-02-20T20:42:49.144Z,20.65
2023-02-20T20:43:49.173Z,20.64
2023-02-20T20:44:49.249Z,20.64
2023-02-20T20:45:49.296Z,20.59
2023-02-20T20:46:49.348Z,20.61
2023-02-20T20:47:49.419Z,20.58
2023-02-20T20:48:49.461Z,20.61
2023-02-20T20:49:49.563Z,20.55
2023-02-20T20:50:49.611Z,20.54
2023-02-20T20:51:49.665Z,20.59
2023-02-20T20:52:49.739Z,20.52
2023-02-20T20:53:49.788Z,20.53
2023-02-20T20:54:49.843Z,20.50
2023-02-20T20:55:49.892Z,20.49
2023-02-20T20:56:49.961Z,20.47
2023-02-20T20:57:49.995Z,20.48
2023-02-20T20:58:50.094Z,20.45
2023-02-20T20:59:50.142Z,20.47
2023-02-20T21:00:50.202Z,20.41
2023-02-20T21:01:50.394Z,20.43
2023-02-20T21:02:50.375Z,20.43
2023-02-20T21:03:50.370Z,20.43
2023-02-20T21:04:52.933Z,20.38
2023-02-20T21:05:50.418Z,20.38
2023-02-20T21:06:50.413Z,20.37
2023-02-20T21:07:50.385Z,20.38
2023-02-20T21:08:50.409Z,20.35
2023-02-20T21:09:50.416Z,20.38
2023-02-20T21:10:50.397Z,20.38
2023-02-20T21:11:50.576Z,20.37
2023-02-20T21:12:50.410Z,20.32
2023-02-20T21:13:50.432Z,20.32
2023-02-20T21:14:50.429Z,20.29
2023-02-20T21:15:50.509Z,20.32
2023-02-20T21:16:50.539Z,20.29
2023-02-20T21:17:50.603Z,20.29
2023-02-20T21:18:50.639Z,20.23
2023-02-20T21:19:50.693Z,20.21
2023-02-20T21:20:50.753Z,20.20
2023-02-20T21:21:50.800Z,20.24
2023-02-20T21:22:50.854Z,20.20
2023-02-20T21:23:50.891Z,20.18
2023-02-20T21:24:51.005Z,20.20
2023-02-20T21:25:51.006Z,20.15
2023-02-20T21:26:51.148Z,20.23
2023-02-20T21:27:51.146Z,20.17
2023-02-20T21:28:52.272Z,20.15
2023-02-20T21:29:51.256Z,20.14
2023-02-20T21:30:51.381Z,20.10
2023-02-20T21:31:51.398Z,20.14
2023-02-20T21:32:51.435Z,20.14
2023-02-20T21:33:51.472Z,20.06
2023-02-20T21:34:51.568Z,20.10
2023-02-20T21:35:51.639Z,20.10
2023-02-20T21:36:51.648Z,20.07